Astoria — CQRV — position and weather

sailwx.info

Track history (hours):
 
Tides and Currents Weather Stations Pressure Air Temp Water Temp Dewpoint Dewpoint Depression Visibility Wind Speed Wind Dir Waves Ship Positions

Astoria

Last reported at 2018-May-28 03:00 UTC. Time now 2018-May-28 03:02 UTC.
Position N 60°48' E 004°44'.

Length 160 m; draft 7.6 m.

Type: Ship. MMSI: 255801380.

Date/timePositionNaut miles runAvg speedWind from/ knotsBaromVisibWave heightAir tempDewpointWater temp
2018-May-28 03:00N 60°48' E 004°44'4 8.8
2018-May-28 02:29N 60°52' E 004°40'5 9.2
2018-May-28 02:00N 60°57' E 004°42'510.0
2018-May-28 01:30N 61°01' E 004°49'510.3
2018-May-28 01:00N 61°03' E 004°58'510.0
2018-May-28 00:30N 61°05' E 005°07'510.8
2018-May-28 00:00N 61°05' E 005°18'510.1
2018-May-27 23:30N 61°05' E 005°29'510.8
2018-May-27 23:00N 61°07' E 005°39'510.5
2018-May-27 22:30N 61°08' E 005°49'511.0
2018-May-27 22:00N 61°08' E 006°01'611.8
2018-May-27 21:30N 61°08' E 006°13'611.8
2018-May-27 21:00N 61°06' E 006°25'611.5
2018-May-27 20:30N 61°09' E 006°35'5 9.4
2018-May-27 20:00N 61°10' E 006°44'511.1
2018-May-27 19:30N 61°08' E 006°55'611.3
2018-May-27 19:00N 61°03' E 007°02'611.3
2018-May-27 18:30N 60°58' E 007°06'5 9.6
2018-May-27 17:59N 60°53' E 007°09'1 1.7
2018-May-27 17:29N 60°52' E 007°08'0 0.0
2018-May-27 16:59N 60°52' E 007°08'0 0.0
2018-May-27 16:29N 60°52' E 007°08'0 0.0
2018-May-27 15:59N 60°52' E 007°08'0 0.0
2018-May-27 15:29N 60°52' E 007°08'0 0.1
2018-May-27 14:59N 60°52' E 007°08'0 0.0
2018-May-27 14:29N 60°52' E 007°08'0 0.0
2018-May-27 13:59N 60°52' E 007°08'0 0.0
2018-May-27 13:29N 60°52' E 007°08'0 0.0
2018-May-27 12:59N 60°52' E 007°08'0 0.0
2018-May-27 12:29N 60°52' E 007°08'0 0.0
2018-May-27 11:59N 60°52' E 007°08'0 0.1
2018-May-27 11:29N 60°52' E 007°08'0 0.2
2018-May-27 11:00N 60°52' E 007°08'4 8.1
2018-May-27 10:30N 60°56' E 007°10'713.3
2018-May-27 09:59N 61°02' E 007°02'613.3
2018-May-27 09:30N 61°07' E 006°55'713.3
2018-May-27 09:00N 61°10' E 006°42'510.4
2018-May-27 08:30N 61°07' E 006°35'1 1.3
2018-May-27 08:00N 61°06' E 006°35'0 0.1
2018-May-27 07:30N 61°06' E 006°35'0 0.1
2018-May-27 07:00N 61°06' E 006°35'2 3.8
2018-May-27 06:30N 61°07' E 006°31'5 9.0
2018-May-27 06:00N 61°06' E 006°22'611.3
2018-May-27 05:30N 61°07' E 006°10'713.9
2018-May-27 05:00N 61°08' E 005°56'713.8
2018-May-27 04:30N 61°07' E 005°42'714.1
2018-May-27 04:00N 61°05' E 005°29'712.9
2018-May-27 03:29N 61°05' E 005°15'613.3
2018-May-27 03:00N 61°10' E 005°05'612.8
2018-May-27 02:30N 61°14' E 004°55'713.4
2018-May-27 02:00N 61°14' E 004°41'611.4
2018-May-27 01:30N 61°16' E 004°29'713.5
2018-May-27 01:00N 61°22' E 004°23'713.8
2018-May-27 00:30N 61°29' E 004°24'713.9
2018-May-27 00:00N 61°36' E 004°26'714.0
2018-May-26 23:30N 61°43' E 004°29'714.2
2018-May-26 23:00N 61°50' E 004°32'714.3
2018-May-26 22:30N 61°57' E 004°36'714.5
2018-May-26 22:00N 62°04' E 004°40'815.9
2018-May-26 21:30N 62°08' E 004°53'816.1
2018-May-26 20:59N 62°13' E 005°08'713.8
2018-May-26 20:30N 62°10' E 005°21'611.7
2018-May-26 20:00N 62°11' E 005°33'714.8
2018-May-26 19:30N 62°12' E 005°49'814.6
2018-May-26 18:59N 62°18' E 006°01'715.1
2018-May-26 18:30N 62°22' E 006°13'815.2
2018-May-26 18:00N 62°25' E 006°28'714.3
2018-May-26 17:29N 62°27' E 006°43'713.7
2018-May-26 17:00N 62°24' E 006°56'713.8
2018-May-26 16:30N 62°18' E 007°01'714.6
2018-May-26 16:00N 62°10' E 007°01'5 9.8
2018-May-26 15:30N 62°06' E 007°04'4 7.1
2018-May-26 14:59N 62°06' E 007°11'0 0.1
2018-May-26 14:29N 62°06' E 007°11'0 0.0
2018-May-26 13:59N 62°06' E 007°11'0 0.0
2018-May-26 13:30N 62°06' E 007°11'0 0.0
2018-May-26 13:00N 62°06' E 007°11'0 0.0
2018-May-26 12:30N 62°06' E 007°11'0 0.0
2018-May-26 12:00N 62°06' E 007°11'0 0.0
2018-May-26 11:30N 62°06' E 007°11'0 0.0
2018-May-26 11:00N 62°06' E 007°11'0 0.0
2018-May-26 10:30N 62°06' E 007°11'0 0.0
2018-May-26 10:00N 62°06' E 007°11'0 0.0
2018-May-26 09:29N 62°06' E 007°11'1 1.1
2018-May-26 09:00N 62°07' E 007°11'510.1
2018-May-26 08:30N 62°06' E 007°00'612.0
2018-May-26 08:00N 62°12' E 007°02'714.5
2018-May-26 07:30N 62°19' E 006°58'714.3
2018-May-26 07:00N 62°26' E 006°54'714.4
2018-May-26 06:30N 62°27' E 006°38'1514.7
2018-May-26 05:30N 62°23' E 006°07'612.3
2018-May-26 05:00N 62°27' E 005°56'611.4
2018-May-26 04:30N 62°29' E 005°45'612.8
2018-May-26 04:00N 62°29' E 005°31'714.5
2018-May-26 03:30N 62°24' E 005°18'714.5
2018-May-26 03:00N 62°20' E 005°05'714.2
2018-May-26 02:30N 62°16' E 004°53'713.8
2018-May-26 02:00N 62°11' E 004°44'713.9
2018-May-26 01:29N 62°04' E 004°38'714.3
2018-May-26 01:00N 61°57' E 004°35'714.2
2018-May-26 00:30N 61°50' E 004°31'714.3
2018-May-26 00:00N 61°43' E 004°28'714.4
2018-May-25 23:30N 61°36' E 004°25'714.2
2018-May-25 23:00N 61°29' E 004°22'714.5
2018-May-25 22:30N 61°22' E 004°22'714.7
2018-May-25 22:00N 61°15' E 004°23'714.5
2018-May-25 21:30N 61°08' E 004°21'714.6
2018-May-25 21:00N 61°00' E 004°18'714.5
2018-May-25 20:30N 60°53' E 004°18'10714.4
2018-May-25 13:04N 59°07' E 004°50'114.2
2018-May-25 13:00N 59°07' E 004°51'713.9
2018-May-25 12:30N 59°02' E 005°00'713.7
2018-May-25 12:00N 59°03' E 005°13'713.9
2018-May-25 11:30N 59°06' E 005°25'5 9.4
2018-May-25 11:00N 59°04' E 005°34'713.7
2018-May-25 10:30N 58°59' E 005°43'1 1.7
2018-May-25 09:59N 58°58' E 005°44'0 0.0
2018-May-25 09:29N 58°58' E 005°44'0 0.0
2018-May-25 08:59N 58°58' E 005°44'0 0.0
2018-May-25 08:29N 58°58' E 005°44'0 0.0
2018-May-25 07:59N 58°58' E 005°44'0 0.0
2018-May-25 07:29N 58°58' E 005°44'0 0.0
2018-May-25 06:59N 58°58' E 005°44'0 0.0
2018-May-25 06:29N 58°58' E 005°44'0 0.0
2018-May-25 06:00N 58°58' E 005°44'0 0.9
2018-May-25 05:30N 58°59' E 005°43'5 9.8
2018-May-25 05:00N 59°02' E 005°36'5 9.7
2018-May-25 04:30N 58°58' E 005°33'713.3
2018-May-25 04:00N 58°51' E 005°30'511.0
2018-May-25 03:30N 58°47' E 005°23'612.1
2018-May-25 03:00N 58°41' E 005°22'713.6
2018-May-25 02:30N 58°34' E 005°21'713.8
2018-May-25 02:00N 58°27' E 005°21'612.0
2018-May-25 01:30N 58°21' E 005°23'611.2
2018-May-25 01:00N 58°16' E 005°28'713.9
2018-May-25 00:29N 58°09' E 005°25'1713.9
2018-May-24 23:17N 57°53' E 005°18'413.6
2018-May-24 22:59N 57°49' E 005°17'1413.4
2018-May-24 21:55N 57°35' E 005°11'713.3
2018-May-24 21:26N 57°29' E 005°08'813.4
2018-May-24 20:49N 57°21' E 005°05'413.3
2018-May-24 20:30N 57°16' E 005°04'713.5
2018-May-24 20:00N 57°10' E 005°01'713.3
2018-May-24 19:30N 57°03' E 004°59'17014.3
2018-May-24 07:35N 54°13' E 004°39'115.0
2018-May-24 07:30N 54°12' E 004°39'815.0
2018-May-24 06:59N 54°05' E 004°38'714.9
2018-May-24 06:30N 53°57' E 004°37'714.5
2018-May-24 06:00N 53°51' E 004°30'714.8
2018-May-24 05:30N 53°46' E 004°22'714.8
2018-May-24 05:00N 53°41' E 004°12'714.8
2018-May-24 04:30N 53°37' E 004°02'714.6
2018-May-24 04:00N 53°33' E 003°52'714.2
2018-May-24 03:30N 53°27' E 003°44'714.4
2018-May-24 03:00N 53°21' E 003°39'1114.6
2018-May-24 02:14N 53°11' E 003°31'514.7
2018-May-24 01:54N 53°06' E 003°27'614.9
2018-May-24 01:30N 53°01' E 003°24'815.2
2018-May-24 01:00N 52°54' E 003°19'815.3
2018-May-24 00:30N 52°47' E 003°14'815.6
2018-May-24 00:00N 52°40' E 003°08'815.8
2018-May-23 23:30N 52°33' E 003°03'815.9
2018-May-23 23:00N 52°25' E 002°58'816.1
2018-May-23 22:30N 52°18' E 002°51'815.9
2018-May-23 22:00N 52°11' E 002°44'816.4
2018-May-23 21:30N 52°03' E 002°43'916.4
2018-May-23 20:59N 51°55' E 002°42'816.4
2018-May-23 20:30N 51°47' E 002°36'816.6
2018-May-23 20:01N 51°41' E 002°29'916.6
2018-May-23 19:30N 51°34' E 002°20'816.2
2018-May-23 18:59N 51°27' E 002°13'815.7
2018-May-23 18:30N 51°20' E 002°09'815.6
2018-May-23 18:00N 51°13' E 002°03'815.5
2018-May-23 17:30N 51°09' E 001°53'714.6
2018-May-23 17:00N 51°04' E 001°45'611.8
2018-May-23 16:30N 51°02' E 001°54'713.4
2018-May-23 15:58N 51°03' E 002°05'714.3
2018-May-23 15:27N 51°04' E 002°17'3 5.6
2018-May-23 15:00N 51°03' E 002°21'0 0.5
2018-May-23 14:30N 51°03' E 002°20'1 1.5
2018-May-23 13:59N 51°03' E 002°21'0 0.0
2018-May-23 13:26N 51°03' E 002°21'0 0.0
2018-May-23 12:59N 51°03' E 002°21'0 0.0
2018-May-23 12:29N 51°03' E 002°21'0 0.0
2018-May-23 11:47N 51°03' E 002°21'0 0.0
2018-May-23 11:26N 51°03' E 002°21'0 0.0
2018-May-23 10:59N 51°03' E 002°21'0 0.0
2018-May-23 10:26N 51°03' E 002°21'0 0.0
2018-May-23 09:56N 51°03' E 002°21'0 0.0
2018-May-23 09:26N 51°03' E 002°21'0 0.0
2018-May-23 08:59N 51°03' E 002°21'0 0.0
2018-May-23 08:20N 51°03' E 002°21'0 0.0
2018-May-23 07:59N 51°03' E 002°21'0 0.8
2018-May-23 07:26N 51°03' E 002°21'0 0.9
2018-May-23 06:51N 51°03' E 002°20'0 1.0
2018-May-23 06:28N 51°03' E 002°21'4 8.7
2018-May-23 06:00N 51°04' E 002°15'611.7
2018-May-23 05:30N 51°03' E 002°05'714.4
2018-May-23 05:01N 51°02' E 001°54'4 8.8
2018-May-23 04:30N 51°02' E 001°47'2 3.6
2018-May-23 04:00N 51°03' E 001°47'1 1.2
2018-May-23 03:30N 51°04' E 001°46'4 8.2
2018-May-23 03:00N 51°01' E 001°41'612.1
2018-May-23 02:30N 50°57' E 001°34'713.2
2018-May-23 02:00N 50°51' E 001°28'713.1
2018-May-23 01:29N 50°45' E 001°25'1113.2
2018-May-23 00:39N 50°36' E 001°14'213.8
2018-May-23 00:31N 50°35' E 001°12'1713.7
2018-May-22 23:15N 50°27' E 000°48'1813.8
2018-May-22 21:58N 50°22' E 000°21'613.7
2018-May-22 21:31N 50°20' E 000°12'713.6
2018-May-22 21:00N 50°18' E 000°02'713.6
2018-May-22 20:30N 50°17' W 000°09'713.5
2018-May-22 20:00N 50°16' W 000°19'713.3
2018-May-22 19:30N 50°14' W 000°29'813.3
2018-May-22 18:55N 50°13' W 000°41'713.4
2018-May-22 18:22N 50°11' W 000°52'513.7
2018-May-22 18:01N 50°10' W 000°60'714.2
2018-May-22 17:30N 50°08' W 001°10'714.8
2018-May-22 17:01N 50°06' W 001°22'815.3
2018-May-22 16:30N 50°04' W 001°33'815.9
2018-May-22 16:00N 50°02' W 001°45'816.4
2018-May-22 15:30N 50°01' W 001°58'816.9
2018-May-22 15:00N 49°59' W 002°11'1016.9
2018-May-22 14:25N 49°56' W 002°25'1216.8
2018-May-22 13:41N 49°52' W 002°44'616.5
2018-May-22 13:20N 49°50' W 002°52'516.3
2018-May-22 13:00N 49°49' W 003°00'816.2
2018-May-22 12:30N 49°47' W 003°12'815.8
2018-May-22 11:59N 49°47' W 003°25'816.2
2018-May-22 11:30N 49°49' W 003°37'2116.2
2018-May-22 10:12N 49°51' W 004°09'816.1
2018-May-22 09:42N 49°51' W 004°22'316.0
2018-May-22 09:31N 49°51' W 004°27'815.9
2018-May-22 09:00N 49°51' W 004°39'815.7
2018-May-22 08:30N 49°52' W 004°51'815.4
2018-May-22 08:00N 49°52' W 005°03'715.1
2018-May-22 07:30N 49°53' W 005°15'914.7
2018-May-22 06:55N 49°53' W 005°28'614.8
2018-May-22 06:30N 49°53' W 005°38'714.7
2018-May-22 06:00N 49°54' W 005°49'4113.8
2018-May-22 03:04N 50°34' W 006°00'115.7
2018-May-22 03:00N 50°35' W 006°00'4814.7
2018-May-21 23:46N 51°22' W 005°58'514.1
2018-May-21 23:23N 51°28' W 005°58'3714.6
2018-May-21 20:53N 52°04' W 005°53'615.8
2018-May-21 20:30N 52°10' W 005°53'816.4
2018-May-21 20:00N 52°18' W 005°52'816.7
2018-May-21 19:30N 52°27' W 005°51'2017.0
2018-May-21 18:19N 52°47' W 005°52'517.0
2018-May-21 18:00N 52°52' W 005°53'917.6
2018-May-21 17:30N 53°01' W 005°54'816.9
2018-May-21 17:00N 53°09' W 005°57'1015.4
2018-May-21 16:20N 53°19' W 006°03'411.3
2018-May-21 16:00N 53°21' W 006°09'2 4.7
2018-May-21 15:29N 53°21' W 006°13'0 0.0
2018-May-21 11:20N 53°21' W 006°13'0 0.0
2018-May-21 09:02N 53°21' W 006°13'0 0.0
2018-May-21 06:20N 53°21' W 006°13'1 2.2
2018-May-21 05:55N 53°21' W 006°12'5 9.7
2018-May-21 05:26N 53°20' W 006°04'4 9.6
2018-May-21 05:00N 53°24' W 005°59'510.6
2018-May-21 04:30N 53°28' W 005°56'611.8
2018-May-21 04:00N 53°34' W 005°53'611.4
2018-May-21 03:30N 53°39' W 005°49'612.2
2018-May-21 03:00N 53°45' W 005°45'713.3
2018-May-21 02:31N 53°50' W 005°39'713.6
2018-May-21 01:59N 53°56' W 005°30'713.8
2018-May-21 01:30N 54°02' W 005°30'713.9
2018-May-21 01:00N 54°09' W 005°28'713.9
2018-May-21 00:30N 54°15' W 005°24'714.4
2018-May-21 00:00N 54°22' W 005°19'714.6
2018-May-20 23:30N 54°29' W 005°20'815.6
2018-May-20 23:00N 54°37' W 005°23'714.7
2018-May-20 22:30N 54°43' W 005°30'714.0
2018-May-20 22:01N 54°42' W 005°42'610.9
2018-May-20 21:29N 54°40' W 005°51'3 5.7
2018-May-20 20:55N 54°37' W 005°54'0 0.0
2018-May-20 20:28N 54°37' W 005°54'0 0.0
2018-May-20 19:58N 54°37' W 005°54'0 0.0
2018-May-20 19:28N 54°37' W 005°54'0 0.0
2018-May-20 18:58N 54°37' W 005°54'0 0.0
2018-May-20 18:28N 54°37' W 005°54'0 0.0
2018-May-20 17:55N 54°37' W 005°54'0 0.0
2018-May-20 17:28N 54°37' W 005°54'0 0.0
2018-May-20 16:58N 54°37' W 005°54'0 0.0
2018-May-20 16:28N 54°37' W 005°54'0 0.0
2018-May-20 15:58N 54°37' W 005°54'0 0.0
2018-May-20 15:28N 54°37' W 005°54'0 0.0
2018-May-20 14:55N 54°37' W 005°54'0 0.0
2018-May-20 14:28N 54°37' W 005°54'0 0.0
2018-May-20 13:58N 54°37' W 005°54'0 0.0
2018-May-20 13:28N 54°37' W 005°54'0 0.0
2018-May-20 12:55N 54°37' W 005°54'0 0.0
2018-May-20 12:28N 54°37' W 005°54'0 0.0
2018-May-20 11:58N 54°37' W 005°54'0 0.0
2018-May-20 11:28N 54°37' W 005°54'0 0.0
2018-May-20 10:58N 54°37' W 005°54'0 0.0
2018-May-20 10:28N 54°37' W 005°54'0 0.0
2018-May-20 09:58N 54°37' W 005°54'0 0.0
2018-May-20 09:28N 54°37' W 005°54'0 0.0
2018-May-20 08:58N 54°37' W 005°54'0 0.0
2018-May-20 08:28N 54°37' W 005°54'0 0.0
2018-May-20 07:58N 54°37' W 005°54'0 0.0
2018-May-20 07:28N 54°37' W 005°54'0 0.0
2018-May-20 06:58N 54°37' W 005°54'0 0.1
2018-May-20 06:29N 54°37' W 005°54'1 1.5
2018-May-20 06:00N 54°38' W 005°53'2 4.0
2018-May-20 05:30N 54°39' W 005°51'5 9.8
2018-May-20 05:00N 54°42' W 005°45'4 8.8
2018-May-20 04:30N 54°45' W 005°39'510.6
2018-May-20 04:01N 54°49' W 005°33'611.3
2018-May-20 03:30N 54°52' W 005°25'5 9.8
2018-May-20 03:00N 54°50' W 005°17'713.3
2018-May-20 02:30N 54°44' W 005°13'612.8
2018-May-20 02:01N 54°38' W 005°09'2 3.3
2018-May-20 01:31N 54°38' W 005°12'714.0
2018-May-20 01:00N 54°44' W 005°18'714.5
2018-May-20 00:30N 54°50' W 005°25'814.8
2018-May-20 00:00N 54°56' W 005°34'1315.1
2018-May-19 23:08N 55°06' W 005°48'315.3
2018-May-19 22:55N 55°08' W 005°52'716.4
2018-May-19 22:29N 55°14' W 005°59'816.2
2018-May-19 22:00N 55°20' W 006°07'714.5
2018-May-19 21:30N 55°22' W 006°20'714.3
2018-May-19 21:01N 55°23' W 006°32'713.3
2018-May-19 20:30N 55°24' W 006°44'712.7
2018-May-19 19:59N 55°24' W 006°55'510.7
2018-May-19 19:29N 55°27' W 007°04'611.4
2018-May-19 18:57N 55°33' W 007°06'510.9
2018-May-19 18:29N 55°38' W 007°07'511.0
2018-May-19 18:00N 55°43' W 007°08'610.5
2018-May-19 17:29N 55°47' W 007°16'711.9
2018-May-19 16:55N 55°46' W 007°27'512.6
2018-May-19 16:30N 55°44' W 007°36'1012.7
2018-May-19 15:42N 55°40' W 007°52'312.9
2018-May-19 15:29N 55°39' W 007°57'712.8
2018-May-19 14:57N 55°36' W 008°08'812.9
2018-May-19 14:20N 55°33' W 008°21'513.1
2018-May-19 13:56N 55°30' W 008°29'1012.1
2018-May-19 13:05N 55°23' W 008°42'312.8
2018-May-19 12:53N 55°21' W 008°43'1013.1
2018-May-19 12:08N 55°11' W 008°47'2213.3
2018-May-19 10:28N 54°49' W 008°53'613.1
2018-May-19 09:59N 54°43' W 008°54'713.4
2018-May-19 09:28N 54°36' W 008°56'713.2
2018-May-19 08:55N 54°29' W 008°57'611.7
2018-May-19 08:27N 54°25' W 009°04'612.9
2018-May-19 07:58N 54°25' W 009°14'613.1
2018-May-19 07:29N 54°25' W 009°25'813.3
2018-May-19 06:53N 54°25' W 009°39'613.6
2018-May-19 06:27N 54°24' W 009°49'613.5
2018-May-19 06:00N 54°22' W 009°59'713.2
2018-May-19 05:30N 54°19' W 010°09'713.2
2018-May-19 04:59N 54°14' W 010°16'612.9
2018-May-19 04:29N 54°08' W 010°22'612.8
2018-May-19 04:00N 54°03' W 010°27'613.2
2018-May-19 03:31N 53°56' W 010°28'713.0
2018-May-19 03:00N 53°50' W 010°29'612.5
2018-May-19 02:30N 53°43' W 010°30'613.1
2018-May-19 02:00N 53°37' W 010°31'713.1
2018-May-19 01:30N 53°31' W 010°32'612.4
2018-May-19 01:00N 53°25' W 010°29'713.0
2018-May-19 00:29N 53°21' W 010°20'613.3
2018-May-19 00:00N 53°17' W 010°11'713.0
2018-May-18 23:29N 53°12' W 010°03'612.9
2018-May-18 23:00N 53°12' W 009°53'713.5
2018-May-18 22:28N 53°12' W 009°41'20 1.4
2018-May-18 08:07N 53°14' W 009°07'4411.3
2018-May-18 04:13N 52°41' W 009°57'414.0
2018-May-18 03:58N 52°39' W 010°01'613.8
2018-May-18 03:30N 52°34' W 010°08'  
Track history (hours):
 
Tides and Currents Weather Stations Pressure Air Temp Water Temp Dewpoint Dewpoint Depression Visibility Wind Speed Wind Dir Waves Ship Positions

Astoria

Last reported at 2018-May-28 03:00 UTC. Time now 2018-May-28 03:02 UTC.
Position N 60°48' E 004°44'.

Length 160 m; draft 7.6 m.

Type: Ship. MMSI: 255801380.

Date/timePositionNaut miles runAvg speedWind from/ knotsBaromVisibWave heightAir tempDewpointWater temp
2018-May-28 03:00N 60°48' E 004°44'4 8.8
2018-May-28 02:29N 60°52' E 004°40'5 9.2
2018-May-28 02:00N 60°57' E 004°42'510.0
2018-May-28 01:30N 61°01' E 004°49'510.3
2018-May-28 01:00N 61°03' E 004°58'510.0
2018-May-28 00:30N 61°05' E 005°07'510.8
2018-May-28 00:00N 61°05' E 005°18'510.1
2018-May-27 23:30N 61°05' E 005°29'510.8
2018-May-27 23:00N 61°07' E 005°39'510.5
2018-May-27 22:30N 61°08' E 005°49'511.0
2018-May-27 22:00N 61°08' E 006°01'611.8
2018-May-27 21:30N 61°08' E 006°13'611.8
2018-May-27 21:00N 61°06' E 006°25'611.5
2018-May-27 20:30N 61°09' E 006°35'5 9.4
2018-May-27 20:00N 61°10' E 006°44'511.1
2018-May-27 19:30N 61°08' E 006°55'611.3
2018-May-27 19:00N 61°03' E 007°02'611.3
2018-May-27 18:30N 60°58' E 007°06'5 9.6
2018-May-27 17:59N 60°53' E 007°09'1 1.7
2018-May-27 17:29N 60°52' E 007°08'0 0.0
2018-May-27 16:59N 60°52' E 007°08'0 0.0
2018-May-27 16:29N 60°52' E 007°08'0 0.0
2018-May-27 15:59N 60°52' E 007°08'0 0.0
2018-May-27 15:29N 60°52' E 007°08'0 0.1
2018-May-27 14:59N 60°52' E 007°08'0 0.0
2018-May-27 14:29N 60°52' E 007°08'0 0.0
2018-May-27 13:59N 60°52' E 007°08'0 0.0
2018-May-27 13:29N 60°52' E 007°08'0 0.0
2018-May-27 12:59N 60°52' E 007°08'0 0.0
2018-May-27 12:29N 60°52' E 007°08'0 0.0
2018-May-27 11:59N 60°52' E 007°08'0 0.1
2018-May-27 11:29N 60°52' E 007°08'0 0.2
2018-May-27 11:00N 60°52' E 007°08'4 8.1
2018-May-27 10:30N 60°56' E 007°10'713.3
2018-May-27 09:59N 61°02' E 007°02'613.3
2018-May-27 09:30N 61°07' E 006°55'713.3
2018-May-27 09:00N 61°10' E 006°42'510.4
2018-May-27 08:30N 61°07' E 006°35'1 1.3
2018-May-27 08:00N 61°06' E 006°35'0 0.1
2018-May-27 07:30N 61°06' E 006°35'0 0.1
2018-May-27 07:00N 61°06' E 006°35'2 3.8
2018-May-27 06:30N 61°07' E 006°31'5 9.0
2018-May-27 06:00N 61°06' E 006°22'611.3
2018-May-27 05:30N 61°07' E 006°10'713.9
2018-May-27 05:00N 61°08' E 005°56'713.8
2018-May-27 04:30N 61°07' E 005°42'714.1
2018-May-27 04:00N 61°05' E 005°29'712.9
2018-May-27 03:29N 61°05' E 005°15'613.3
2018-May-27 03:00N 61°10' E 005°05'612.8
2018-May-27 02:30N 61°14' E 004°55'713.4
2018-May-27 02:00N 61°14' E 004°41'611.4
2018-May-27 01:30N 61°16' E 004°29'713.5
2018-May-27 01:00N 61°22' E 004°23'713.8
2018-May-27 00:30N 61°29' E 004°24'713.9
2018-May-27 00:00N 61°36' E 004°26'714.0
2018-May-26 23:30N 61°43' E 004°29'714.2
2018-May-26 23:00N 61°50' E 004°32'714.3
2018-May-26 22:30N 61°57' E 004°36'714.5
2018-May-26 22:00N 62°04' E 004°40'815.9
2018-May-26 21:30N 62°08' E 004°53'816.1
2018-May-26 20:59N 62°13' E 005°08'713.8
2018-May-26 20:30N 62°10' E 005°21'611.7
2018-May-26 20:00N 62°11' E 005°33'714.8
2018-May-26 19:30N 62°12' E 005°49'814.6
2018-May-26 18:59N 62°18' E 006°01'715.1
2018-May-26 18:30N 62°22' E 006°13'815.2
2018-May-26 18:00N 62°25' E 006°28'714.3
2018-May-26 17:29N 62°27' E 006°43'713.7
2018-May-26 17:00N 62°24' E 006°56'713.8
2018-May-26 16:30N 62°18' E 007°01'714.6
2018-May-26 16:00N 62°10' E 007°01'5 9.8
2018-May-26 15:30N 62°06' E 007°04'4 7.1
2018-May-26 14:59N 62°06' E 007°11'0 0.1
2018-May-26 14:29N 62°06' E 007°11'0 0.0
2018-May-26 13:59N 62°06' E 007°11'0 0.0
2018-May-26 13:30N 62°06' E 007°11'0 0.0
2018-May-26 13:00N 62°06' E 007°11'0 0.0
2018-May-26 12:30N 62°06' E 007°11'0 0.0
2018-May-26 12:00N 62°06' E 007°11'0 0.0
2018-May-26 11:30N 62°06' E 007°11'0 0.0
2018-May-26 11:00N 62°06' E 007°11'0 0.0
2018-May-26 10:30N 62°06' E 007°11'0 0.0
2018-May-26 10:00N 62°06' E 007°11'0 0.0
2018-May-26 09:29N 62°06' E 007°11'1 1.1
2018-May-26 09:00N 62°07' E 007°11'510.1
2018-May-26 08:30N 62°06' E 007°00'612.0
2018-May-26 08:00N 62°12' E 007°02'714.5
2018-May-26 07:30N 62°19' E 006°58'714.3
2018-May-26 07:00N 62°26' E 006°54'714.4
2018-May-26 06:30N 62°27' E 006°38'1514.7
2018-May-26 05:30N 62°23' E 006°07'612.3
2018-May-26 05:00N 62°27' E 005°56'611.4
2018-May-26 04:30N 62°29' E 005°45'612.8
2018-May-26 04:00N 62°29' E 005°31'714.5
2018-May-26 03:30N 62°24' E 005°18'714.5
2018-May-26 03:00N 62°20' E 005°05'714.2
2018-May-26 02:30N 62°16' E 004°53'713.8
2018-May-26 02:00N 62°11' E 004°44'713.9
2018-May-26 01:29N 62°04' E 004°38'714.3
2018-May-26 01:00N 61°57' E 004°35'714.2
2018-May-26 00:30N 61°50' E 004°31'714.3
2018-May-26 00:00N 61°43' E 004°28'714.4
2018-May-25 23:30N 61°36' E 004°25'714.2
2018-May-25 23:00N 61°29' E 004°22'714.5
2018-May-25 22:30N 61°22' E 004°22'714.7
2018-May-25 22:00N 61°15' E 004°23'714.5
2018-May-25 21:30N 61°08' E 004°21'714.6
2018-May-25 21:00N 61°00' E 004°18'714.5
2018-May-25 20:30N 60°53' E 004°18'10714.4
2018-May-25 13:04N 59°07' E 004°50'114.2
2018-May-25 13:00N 59°07' E 004°51'713.9
2018-May-25 12:30N 59°02' E 005°00'713.7
2018-May-25 12:00N 59°03' E 005°13'713.9
2018-May-25 11:30N 59°06' E 005°25'5 9.4
2018-May-25 11:00N 59°04' E 005°34'713.7
2018-May-25 10:30N 58°59' E 005°43'1 1.7
2018-May-25 09:59N 58°58' E 005°44'0 0.0
2018-May-25 09:29N 58°58' E 005°44'0 0.0
2018-May-25 08:59N 58°58' E 005°44'0 0.0
2018-May-25 08:29N 58°58' E 005°44'0 0.0
2018-May-25 07:59N 58°58' E 005°44'0 0.0
2018-May-25 07:29N 58°58' E 005°44'0 0.0
2018-May-25 06:59N 58°58' E 005°44'0 0.0
2018-May-25 06:29N 58°58' E 005°44'0 0.0
2018-May-25 06:00N 58°58' E 005°44'0 0.9
2018-May-25 05:30N 58°59' E 005°43'5 9.8
2018-May-25 05:00N 59°02' E 005°36'5 9.7
2018-May-25 04:30N 58°58' E 005°33'713.3
2018-May-25 04:00N 58°51' E 005°30'511.0
2018-May-25 03:30N 58°47' E 005°23'612.1
2018-May-25 03:00N 58°41' E 005°22'713.6
2018-May-25 02:30N 58°34' E 005°21'713.8
2018-May-25 02:00N 58°27' E 005°21'612.0
2018-May-25 01:30N 58°21' E 005°23'611.2
2018-May-25 01:00N 58°16' E 005°28'713.9
2018-May-25 00:29N 58°09' E 005°25'1713.9
2018-May-24 23:17N 57°53' E 005°18'413.6
2018-May-24 22:59N 57°49' E 005°17'1413.4
2018-May-24 21:55N 57°35' E 005°11'713.3
2018-May-24 21:26N 57°29' E 005°08'813.4
2018-May-24 20:49N 57°21' E 005°05'413.3
2018-May-24 20:30N 57°16' E 005°04'713.5
2018-May-24 20:00N 57°10' E 005°01'713.3
2018-May-24 19:30N 57°03' E 004°59'17014.3
2018-May-24 07:35N 54°13' E 004°39'115.0
2018-May-24 07:30N 54°12' E 004°39'815.0
2018-May-24 06:59N 54°05' E 004°38'714.9
2018-May-24 06:30N 53°57' E 004°37'714.5
2018-May-24 06:00N 53°51' E 004°30'714.8
2018-May-24 05:30N 53°46' E 004°22'714.8
2018-May-24 05:00N 53°41' E 004°12'714.8
2018-May-24 04:30N 53°37' E 004°02'714.6
2018-May-24 04:00N 53°33' E 003°52'714.2
2018-May-24 03:30N 53°27' E 003°44'714.4
2018-May-24 03:00N 53°21' E 003°39'1114.6
2018-May-24 02:14N 53°11' E 003°31'514.7
2018-May-24 01:54N 53°06' E 003°27'614.9
2018-May-24 01:30N 53°01' E 003°24'815.2
2018-May-24 01:00N 52°54' E 003°19'815.3
2018-May-24 00:30N 52°47' E 003°14'815.6
2018-May-24 00:00N 52°40' E 003°08'815.8
2018-May-23 23:30N 52°33' E 003°03'815.9
2018-May-23 23:00N 52°25' E 002°58'816.1
2018-May-23 22:30N 52°18' E 002°51'815.9
2018-May-23 22:00N 52°11' E 002°44'816.4
2018-May-23 21:30N 52°03' E 002°43'916.4
2018-May-23 20:59N 51°55' E 002°42'816.4
2018-May-23 20:30N 51°47' E 002°36'816.6
2018-May-23 20:01N 51°41' E 002°29'916.6
2018-May-23 19:30N 51°34' E 002°20'816.2
2018-May-23 18:59N 51°27' E 002°13'815.7
2018-May-23 18:30N 51°20' E 002°09'815.6
2018-May-23 18:00N 51°13' E 002°03'815.5
2018-May-23 17:30N 51°09' E 001°53'714.6
2018-May-23 17:00N 51°04' E 001°45'611.8
2018-May-23 16:30N 51°02' E 001°54'713.4
2018-May-23 15:58N 51°03' E 002°05'714.3
2018-May-23 15:27N 51°04' E 002°17'3 5.6
2018-May-23 15:00N 51°03' E 002°21'0 0.5
2018-May-23 14:30N 51°03' E 002°20'1 1.5
2018-May-23 13:59N 51°03' E 002°21'0 0.0
2018-May-23 13:26N 51°03' E 002°21'0 0.0
2018-May-23 12:59N 51°03' E 002°21'0 0.0
2018-May-23 12:29N 51°03' E 002°21'0 0.0
2018-May-23 11:47N 51°03' E 002°21'0 0.0
2018-May-23 11:26N 51°03' E 002°21'0 0.0
2018-May-23 10:59N 51°03' E 002°21'0 0.0
2018-May-23 10:26N 51°03' E 002°21'0 0.0
2018-May-23 09:56N 51°03' E 002°21'0 0.0
2018-May-23 09:26N 51°03' E 002°21'0 0.0
2018-May-23 08:59N 51°03' E 002°21'0 0.0
2018-May-23 08:20N 51°03' E 002°21'0 0.0
2018-May-23 07:59N 51°03' E 002°21'0 0.8
2018-May-23 07:26N 51°03' E 002°21'0 0.9
2018-May-23 06:51N 51°03' E 002°20'0 1.0
2018-May-23 06:28N 51°03' E 002°21'4 8.7
2018-May-23 06:00N 51°04' E 002°15'611.7
2018-May-23 05:30N 51°03' E 002°05'714.4
2018-May-23 05:01N 51°02' E 001°54'4 8.8
2018-May-23 04:30N 51°02' E 001°47'2 3.6
2018-May-23 04:00N 51°03' E 001°47'1 1.2
2018-May-23 03:30N 51°04' E 001°46'4 8.2
2018-May-23 03:00N 51°01' E 001°41'612.1
2018-May-23 02:30N 50°57' E 001°34'713.2
2018-May-23 02:00N 50°51' E 001°28'713.1
2018-May-23 01:29N 50°45' E 001°25'1113.2
2018-May-23 00:39N 50°36' E 001°14'213.8
2018-May-23 00:31N 50°35' E 001°12'1713.7
2018-May-22 23:15N 50°27' E 000°48'1813.8
2018-May-22 21:58N 50°22' E 000°21'613.7
2018-May-22 21:31N 50°20' E 000°12'713.6
2018-May-22 21:00N 50°18' E 000°02'713.6
2018-May-22 20:30N 50°17' W 000°09'713.5
2018-May-22 20:00N 50°16' W 000°19'713.3
2018-May-22 19:30N 50°14' W 000°29'813.3
2018-May-22 18:55N 50°13' W 000°41'713.4
2018-May-22 18:22N 50°11' W 000°52'513.7
2018-May-22 18:01N 50°10' W 000°60'714.2
2018-May-22 17:30N 50°08' W 001°10'714.8
2018-May-22 17:01N 50°06' W 001°22'815.3
2018-May-22 16:30N 50°04' W 001°33'815.9
2018-May-22 16:00N 50°02' W 001°45'816.4
2018-May-22 15:30N 50°01' W 001°58'816.9
2018-May-22 15:00N 49°59' W 002°11'1016.9
2018-May-22 14:25N 49°56' W 002°25'1216.8
2018-May-22 13:41N 49°52' W 002°44'616.5
2018-May-22 13:20N 49°50' W 002°52'516.3
2018-May-22 13:00N 49°49' W 003°00'816.2
2018-May-22 12:30N 49°47' W 003°12'815.8
2018-May-22 11:59N 49°47' W 003°25'816.2
2018-May-22 11:30N 49°49' W 003°37'2116.2
2018-May-22 10:12N 49°51' W 004°09'816.1
2018-May-22 09:42N 49°51' W 004°22'316.0
2018-May-22 09:31N 49°51' W 004°27'815.9
2018-May-22 09:00N 49°51' W 004°39'815.7
2018-May-22 08:30N 49°52' W 004°51'815.4
2018-May-22 08:00N 49°52' W 005°03'715.1
2018-May-22 07:30N 49°53' W 005°15'914.7
2018-May-22 06:55N 49°53' W 005°28'614.8
2018-May-22 06:30N 49°53' W 005°38'714.7
2018-May-22 06:00N 49°54' W 005°49'4113.8
2018-May-22 03:04N 50°34' W 006°00'115.7
2018-May-22 03:00N 50°35' W 006°00'4814.7
2018-May-21 23:46N 51°22' W 005°58'514.1
2018-May-21 23:23N 51°28' W 005°58'3714.6
2018-May-21 20:53N 52°04' W 005°53'615.8
2018-May-21 20:30N 52°10' W 005°53'816.4
2018-May-21 20:00N 52°18' W 005°52'816.7
2018-May-21 19:30N 52°27' W 005°51'2017.0
2018-May-21 18:19N 52°47' W 005°52'517.0
2018-May-21 18:00N 52°52' W 005°53'917.6
2018-May-21 17:30N 53°01' W 005°54'816.9
2018-May-21 17:00N 53°09' W 005°57'1015.4
2018-May-21 16:20N 53°19' W 006°03'411.3
2018-May-21 16:00N 53°21' W 006°09'2 4.7
2018-May-21 15:29N 53°21' W 006°13'0 0.0
2018-May-21 11:20N 53°21' W 006°13'0 0.0
2018-May-21 09:02N 53°21' W 006°13'0 0.0
2018-May-21 06:20N 53°21' W 006°13'1 2.2
2018-May-21 05:55N 53°21' W 006°12'5 9.7
2018-May-21 05:26N 53°20' W 006°04'4 9.6
2018-May-21 05:00N 53°24' W 005°59'510.6
2018-May-21 04:30N 53°28' W 005°56'611.8
2018-May-21 04:00N 53°34' W 005°53'611.4
2018-May-21 03:30N 53°39' W 005°49'612.2
2018-May-21 03:00N 53°45' W 005°45'713.3
2018-May-21 02:31N 53°50' W 005°39'713.6
2018-May-21 01:59N 53°56' W 005°30'713.8
2018-May-21 01:30N 54°02' W 005°30'713.9
2018-May-21 01:00N 54°09' W 005°28'713.9
2018-May-21 00:30N 54°15' W 005°24'714.4
2018-May-21 00:00N 54°22' W 005°19'714.6
2018-May-20 23:30N 54°29' W 005°20'815.6
2018-May-20 23:00N 54°37' W 005°23'714.7
2018-May-20 22:30N 54°43' W 005°30'714.0
2018-May-20 22:01N 54°42' W 005°42'610.9
2018-May-20 21:29N 54°40' W 005°51'3 5.7
2018-May-20 20:55N 54°37' W 005°54'0 0.0
2018-May-20 20:28N 54°37' W 005°54'0 0.0
2018-May-20 19:58N 54°37' W 005°54'0 0.0
2018-May-20 19:28N 54°37' W 005°54'0 0.0
2018-May-20 18:58N 54°37' W 005°54'0 0.0
2018-May-20 18:28N 54°37' W 005°54'0 0.0
2018-May-20 17:55N 54°37' W 005°54'0 0.0
2018-May-20 17:28N 54°37' W 005°54'0 0.0
2018-May-20 16:58N 54°37' W 005°54'0 0.0
2018-May-20 16:28N 54°37' W 005°54'0 0.0
2018-May-20 15:58N 54°37' W 005°54'0 0.0
2018-May-20 15:28N 54°37' W 005°54'0 0.0
2018-May-20 14:55N 54°37' W 005°54'0 0.0
2018-May-20 14:28N 54°37' W 005°54'0 0.0
2018-May-20 13:58N 54°37' W 005°54'0 0.0
2018-May-20 13:28N 54°37' W 005°54'0 0.0
2018-May-20 12:55N 54°37' W 005°54'0 0.0
2018-May-20 12:28N 54°37' W 005°54'0 0.0
2018-May-20 11:58N 54°37' W 005°54'0 0.0
2018-May-20 11:28N 54°37' W 005°54'0 0.0
2018-May-20 10:58N 54°37' W 005°54'0 0.0
2018-May-20 10:28N 54°37' W 005°54'0 0.0
2018-May-20 09:58N 54°37' W 005°54'0 0.0
2018-May-20 09:28N 54°37' W 005°54'0 0.0
2018-May-20 08:58N 54°37' W 005°54'0 0.0
2018-May-20 08:28N 54°37' W 005°54'0 0.0
2018-May-20 07:58N 54°37' W 005°54'0 0.0
2018-May-20 07:28N 54°37' W 005°54'0 0.0
2018-May-20 06:58N 54°37' W 005°54'0 0.1
2018-May-20 06:29N 54°37' W 005°54'1 1.5
2018-May-20 06:00N 54°38' W 005°53'2 4.0
2018-May-20 05:30N 54°39' W 005°51'5 9.8
2018-May-20 05:00N 54°42' W 005°45'4 8.8
2018-May-20 04:30N 54°45' W 005°39'510.6
2018-May-20 04:01N 54°49' W 005°33'611.3
2018-May-20 03:30N 54°52' W 005°25'5 9.8
2018-May-20 03:00N 54°50' W 005°17'713.3
2018-May-20 02:30N 54°44' W 005°13'612.8
2018-May-20 02:01N 54°38' W 005°09'2 3.3
2018-May-20 01:31N 54°38' W 005°12'714.0
2018-May-20 01:00N 54°44' W 005°18'714.5
2018-May-20 00:30N 54°50' W 005°25'814.8
2018-May-20 00:00N 54°56' W 005°34'1315.1
2018-May-19 23:08N 55°06' W 005°48'315.3
2018-May-19 22:55N 55°08' W 005°52'716.4
2018-May-19 22:29N 55°14' W 005°59'816.2
2018-May-19 22:00N 55°20' W 006°07'714.5
2018-May-19 21:30N 55°22' W 006°20'714.3
2018-May-19 21:01N 55°23' W 006°32'713.3
2018-May-19 20:30N 55°24' W 006°44'712.7
2018-May-19 19:59N 55°24' W 006°55'510.7
2018-May-19 19:29N 55°27' W 007°04'611.4
2018-May-19 18:57N 55°33' W 007°06'510.9
2018-May-19 18:29N 55°38' W 007°07'511.0
2018-May-19 18:00N 55°43' W 007°08'610.5
2018-May-19 17:29N 55°47' W 007°16'711.9
2018-May-19 16:55N 55°46' W 007°27'512.6
2018-May-19 16:30N 55°44' W 007°36'1012.7
2018-May-19 15:42N 55°40' W 007°52'312.9
2018-May-19 15:29N 55°39' W 007°57'712.8
2018-May-19 14:57N 55°36' W 008°08'812.9
2018-May-19 14:20N 55°33' W 008°21'513.1
2018-May-19 13:56N 55°30' W 008°29'1012.1
2018-May-19 13:05N 55°23' W 008°42'312.8
2018-May-19 12:53N 55°21' W 008°43'1013.1
2018-May-19 12:08N 55°11' W 008°47'2213.3
2018-May-19 10:28N 54°49' W 008°53'613.1
2018-May-19 09:59N 54°43' W 008°54'713.4
2018-May-19 09:28N 54°36' W 008°56'713.2
2018-May-19 08:55N 54°29' W 008°57'611.7
2018-May-19 08:27N 54°25' W 009°04'612.9
2018-May-19 07:58N 54°25' W 009°14'613.1
2018-May-19 07:29N 54°25' W 009°25'813.3
2018-May-19 06:53N 54°25' W 009°39'613.6
2018-May-19 06:27N 54°24' W 009°49'613.5
2018-May-19 06:00N 54°22' W 009°59'713.2
2018-May-19 05:30N 54°19' W 010°09'713.2
2018-May-19 04:59N 54°14' W 010°16'612.9
2018-May-19 04:29N 54°08' W 010°22'612.8
2018-May-19 04:00N 54°03' W 010°27'613.2
2018-May-19 03:31N 53°56' W 010°28'713.0
2018-May-19 03:00N 53°50' W 010°29'612.5
2018-May-19 02:30N 53°43' W 010°30'613.1
2018-May-19 02:00N 53°37' W 010°31'713.1
2018-May-19 01:30N 53°31' W 010°32'612.4
2018-May-19 01:00N 53°25' W 010°29'713.0
2018-May-19 00:29N 53°21' W 010°20'613.3
2018-May-19 00:00N 53°17' W 010°11'713.0
2018-May-18 23:29N 53°12' W 010°03'612.9
2018-May-18 23:00N 53°12' W 009°53'713.5
2018-May-18 22:28N 53°12' W 009°41'20 1.4
2018-May-18 08:07N 53°14' W 009°07'4411.3
2018-May-18 04:13N 52°41' W 009°57'414.0
2018-May-18 03:58N 52°39' W 010°01'613.8
2018-May-18 03:30N 52°34' W 010°08'  

Dump ship's entire track history